Startpagina
METAR-TAF:

METAR-TAF

Vliegvelden :

Aeroporto di Roma Fiumicino

Rome-Fiumicino, Italië

breedte: 41-48N, lengte: 012-14E, hoogte: 2 m

Actueel weer

Dit bericht is 34 minuten geleden gemaakt, om 11:20 UTC
Wind 9 kt uit het noordoosten
Temperatuur 19°C
Vochtigheid 46%
Druk 1019 hPa
Zicht 10 km of meer
geen wolken onder 1500 m en geen cumulonimbus

METAR: LIRF 161120Z 04009KT CAVOK 19/07 Q1019 NOSIG

Tijdstip: 12:54 (11:54 UTC)

Verwachting

Dit bericht is 54 minuten geleden gemaakt, om 11:00 UTC
Verwachting geldig van 16 om 12 UTC tot 17 om 18 UTC
Wind 15 kt uit het noordoosten
Zicht 10 km of meer
Weinig wolken op 3000 ft

TAF: LIRF 161100Z 1612/1718 04015KT 9999 FEW030

Waarnemingen en weersverwachtingen van meer dan 4000 vliegvelden (METAR en TAF).

De beschikbare stations zijn de gele en rode punten op de kaart.

Ga met uw muis naar het station om de naam te zien.

Klik dan om waarnemingen en weersverwachtingen te zien.

kaart wijzigen: klik op de groene knoppen met een zwart kruis om in te zoomen, op de groene knop met een streepje om uit te zoomen of op de groene pijlen voor aangrenzende kaarten.


METAR-TAF: